Time;durP1;ratioP1;P1;durP2;ratioP2;P2;SDS_P1;SDS_P2;PMS_P1;PMS_P2;Temp;Humidity;BMP_temperature;BMP_pressure;BME280_temperature;BME280_humidity;BME280_pressure;Samples;Min_cycle;Max_cycle;Signal;HPM_P1;HPM_P2
2023/08/25 00:01:58;;;;;;;3.88;3.20;;;;;;;22.87;59.22;100332.44;5116269;27;20531;-66
2023/08/25 00:04:25;;;;;;;6.82;3.55;;;;;;;22.87;59.52;100329.75;5113545;27;20127;-63
2023/08/25 00:06:53;;;;;;;5.50;3.28;;;;;;;22.86;59.33;100334.28;5108308;27;20136;-65
2023/08/25 00:09:20;;;;;;;4.97;3.58;;;;;;;22.86;59.42;100333.44;5109684;27;20158;-62
2023/08/25 00:11:47;;;;;;;4.53;3.40;;;;;;;22.86;59.31;100314.66;5109644;27;20523;-65
2023/08/25 00:14:15;;;;;;;4.43;3.67;;;;;;;22.87;59.65;100302.91;5110070;27;20098;-61
2023/08/25 00:16:42;;;;;;;6.07;3.38;;;;;;;22.85;59.30;100284.31;5111549;27;20499;-65
2023/08/25 00:19:09;;;;;;;5.22;3.63;;;;;;;22.84;59.21;100276.44;5113712;27;20479;-66
2023/08/25 00:21:36;;;;;;;7.07;3.70;;;;;;;22.84;59.05;100271.06;5094853;27;21598;-65
2023/08/25 00:24:04;;;;;;;5.30;3.42;;;;;;;22.83;59.14;100280.97;5114185;27;20212;-65
2023/08/25 00:26:32;;;;;;;5.82;3.60;;;;;;;22.83;58.64;100282.81;5099775;27;20054;-64
2023/08/25 00:28:59;;;;;;;7.30;3.33;;;;;;;22.82;58.70;100284.66;5113199;27;20067;-65
2023/08/25 00:31:26;;;;;;;5.10;3.70;;;;;;;22.83;58.85;100278.28;5112744;27;20083;-64
2023/08/25 00:33:54;;;;;;;8.00;3.65;;;;;;;22.83;58.90;100280.97;5112975;27;20090;-64
2023/08/25 00:36:21;;;;;;;9.00;3.50;;;;;;;22.85;58.96;100278.09;5106634;27;20044;-65
2023/08/25 00:38:49;;;;;;;3.72;3.13;;;;;;;22.84;58.91;100271.06;5111542;27;20111;-65
2023/08/25 00:41:16;;;;;;;7.65;3.83;;;;;;;22.83;59.28;100274.75;5095011;28;20124;-64
2023/08/25 00:43:43;;;;;;;4.88;3.28;;;;;;;22.82;59.60;100265.03;5123103;22;20139;-68
2023/08/25 00:46:11;;;;;;;6.82;3.38;;;;;;;22.79;59.73;100260.03;5078815;27;20055;-66
2023/08/25 00:48:38;;;;;;;4.05;2.85;;;;;;;22.77;59.78;100260.19;5092176;27;20140;-67
2023/08/25 00:51:06;;;;;;;7.80;3.90;;;;;;;22.74;60.21;100258.72;5098396;28;20401;-67
2023/08/25 00:53:34;;;;;;;8.65;3.40;;;;;;;22.70;60.54;100259.25;5096855;27;20066;-67
2023/08/25 00:56:02;;;;;;;7.53;3.58;;;;;;;22.66;60.65;100258.78;5088440;28;20074;-68
2023/08/25 00:58:29;;;;;;;4.47;2.88;;;;;;;22.67;60.80;100270.34;5086136;28;20078;-67
2023/08/25 01:00:58;;;;;;;6.40;3.38;;;;;;;22.64;60.89;100266.16;5083789;28;20170;-67
2023/08/25 01:03:26;;;;;;;4.75;3.35;;;;;;;22.64;61.08;100263.47;5086017;28;20141;-67
2023/08/25 01:05:54;;;;;;;8.30;3.45;;;;;;;22.63;61.29;100261.81;5087376;28;20071;-69
2023/08/25 01:08:22;;;;;;;3.95;3.40;;;;;;;22.61;61.69;100261.16;5106831;27;20092;-67
2023/08/25 01:11:03;;;;;;;7.93;3.90;;;;;;;22.61;61.54;100254.97;5108413;27;20061;-67
2023/08/25 01:13:56;;;;;;;6.93;3.60;;;;;;;22.60;61.68;100259.47;5086126;27;20118;-67
2023/08/25 01:16:31;;;;;;;7.88;3.58;;;;;;;22.59;62.33;100252.44;5097992;28;20220;-67
2023/08/25 01:19:00;;;;;;;5.07;3.88;;;;;;;22.59;62.42;100252.44;5094568;27;20093;-67
2023/08/25 01:21:27;;;;;;;6.03;4.13;;;;;;;22.58;62.12;100250.78;5088485;28;20130;-67
2023/08/25 01:24:16;;;;;;;7.82;4.25;;;;;;;22.59;62.30;100235.50;5087178;28;20083;-67
2023/08/25 01:26:43;;;;;;;6.57;3.75;;;;;;;22.58;62.72;100225.78;5081253;28;20075;-67
2023/08/25 01:29:10;;;;;;;5.03;3.80;;;;;;;22.54;63.09;100219.94;5086445;27;20096;-67
2023/08/25 01:31:38;;;;;;;6.60;3.70;;;;;;;22.53;63.30;100196.81;5101743;28;20048;-67
2023/08/25 01:34:06;;;;;;;5.55;3.85;;;;;;;22.49;63.75;100190.97;5097235;28;20066;-68
2023/08/25 01:36:41;;;;;;;6.60;4.03;;;;;;;22.48;63.64;100191.16;5083973;27;20230;-67
2023/08/25 01:39:10;;;;;;;5.10;3.53;;;;;;;22.46;63.65;100179.75;5102305;27;20074;-68
2023/08/25 01:41:42;;;;;;;6.57;3.60;;;;;;;22.45;64.10;100172.72;5104114;27;20083;-68
2023/08/25 01:44:10;;;;;;;7.47;4.20;;;;;;;22.44;64.05;100168.38;5107100;27;20078;-67
2023/08/25 01:46:38;;;;;;;6.22;3.63;;;;;;;22.42;64.90;100159.66;5099028;27;21335;-67
2023/08/25 01:49:06;;;;;;;6.70;3.78;;;;;;;;;;5099730;28;20040;-67
2023/08/25 01:51:33;;;;;;;6.00;4.07;;;;;;;22.37;65.15;100164.75;5108841;27;20146;-68
2023/08/25 01:54:01;;;;;;;5.18;3.80;;;;;;;22.34;65.33;100181.22;5100799;27;20047;-68
2023/08/25 01:56:28;;;;;;;8.70;4.25;;;;;;;22.31;65.83;100177.00;5076507;27;20051;-68
2023/08/25 01:58:56;;;;;;;4.97;3.90;;;;;;;22.30;66.46;100170.00;5106874;27;20055;-68
2023/08/25 02:01:25;;;;;;;9.90;4.10;;;;;;;22.28;66.08;100169.31;5103365;27;20518;-68
2023/08/25 02:03:53;;;;;;;6.38;3.70;;;;;;;22.28;66.65;100168.47;5083152;27;20138;-67
2023/08/25 02:06:20;;;;;;;8.88;4.50;;;;;;;22.28;66.77;100171.16;5103505;28;20068;-67
2023/08/25 02:08:47;;;;;;;7.32;4.18;;;;;;;22.25;67.07;100167.00;5099277;27;20123;-68
2023/08/25 02:11:15;;;;;;;9.48;4.68;;;;;;;22.23;66.79;100172.53;5107011;27;20146;-67
2023/08/25 02:13:42;;;;;;;7.20;4.45;;;;;;;22.23;67.00;100164.50;5105781;27;20530;-68
2023/08/25 02:16:09;;;;;;;6.32;4.10;;;;;;;22.23;67.21;100161.81;5081063;28;20063;-67
2023/08/25 02:18:37;;;;;;;6.78;3.72;;;;;;;22.22;67.46;100157.47;5076665;28;20055;-68
2023/08/25 02:21:05;;;;;;;6.63;4.03;;;;;;;22.23;67.75;100155.59;5070266;28;20503;-68
2023/08/25 02:23:32;;;;;;;6.25;4.10;;;;;;;22.23;67.80;100153.75;5106255;28;20075;-67
2023/08/25 02:25:59;;;;;;;5.95;4.13;;;;;;;22.21;67.90;100155.78;5089618;27;20440;-67
2023/08/25 02:28:28;;;;;;;6.60;4.60;;;;;;;22.24;67.95;100149.22;5105025;27;20073;-67
2023/08/25 02:30:55;;;;;;;7.38;4.38;;;;;;;22.22;68.24;100164.66;5102281;28;20138;-67
2023/08/25 02:33:22;;;;;;;6.32;4.25;;;;;;;22.20;68.31;100150.63;5104563;27;20113;-68
2023/08/25 02:35:49;;;;;;;7.22;4.40;;;;;;;22.17;68.71;100146.44;5084797;28;20068;-67
2023/08/25 02:38:17;;;;;;;5.95;4.05;;;;;;;22.17;68.59;100149.13;5100348;28;20075;-66
2023/08/25 02:40:44;;;;;;;6.38;4.20;;;;;;;22.18;68.69;100136.53;5103675;27;20067;-70
2023/08/25 02:43:11;;;;;;;8.80;4.70;;;;;;;22.18;69.07;100137.38;5107206;28;20479;-66
2023/08/25 02:45:41;;;;;;;5.45;4.15;;;;;;;22.20;69.07;100134.53;5097774;28;20175;-67
2023/08/25 02:48:08;;;;;;;6.55;4.60;;;;;;;22.18;68.61;100137.38;5095518;28;20697;-68
2023/08/25 02:50:36;;;;;;;7.68;4.20;;;;;;;22.17;68.96;100134.88;5115103;28;20515;-67
2023/08/25 02:53:03;;;;;;;5.03;4.20;;;;;;;22.15;69.59;100131.53;5109490;28;20109;-66
2023/08/25 02:55:31;;;;;;;6.03;4.13;;;;;;;22.12;70.24;100130.06;5105496;28;20078;-67
2023/08/25 02:57:58;;;;;;;9.60;4.93;;;;;;;22.10;69.81;100123.97;5107298;28;21469;-66
2023/08/25 03:00:25;;;;;;;12.88;5.75;;;;;;;22.08;70.07;100109.94;5104336;28;20079;-65
2023/08/25 03:02:53;;;;;;;9.15;4.22;;;;;;;22.07;70.27;100112.81;5101348;28;20594;-66
2023/08/25 03:05:24;;;;;;;9.27;4.22;;;;;;;22.06;70.35;100108.44;5106471;28;20067;-66
2023/08/25 03:07:52;;;;;;;10.23;4.30;;;;;;;22.03;70.52;100112.31;5087098;28;20124;-66
2023/08/25 03:10:21;;;;;;;14.13;5.82;;;;;;;22.00;70.77;100115.34;5081419;28;20447;-67
2023/08/25 03:12:48;;;;;;;8.18;4.45;;;;;;;21.96;70.94;100124.75;5081859;28;20530;-66
2023/08/25 03:15:16;;;;;;;8.98;4.70;;;;;;;21.93;71.17;100123.28;5103841;28;20109;-66
2023/08/25 03:17:43;;;;;;;8.55;4.57;;;;;;;21.90;71.06;100130.81;5102086;28;20075;-66
2023/08/25 03:20:10;;;;;;;5.95;4.85;;;;;;;21.88;72.26;100135.50;5106925;28;20075;-69
2023/08/25 03:22:38;;;;;;;8.68;4.40;;;;;;;21.85;71.79;100133.19;5108039;28;20044;-68
2023/08/25 03:25:06;;;;;;;5.55;4.10;;;;;;;21.85;72.04;100138.56;5102687;28;20055;-67
2023/08/25 03:27:34;;;;;;;7.45;3.80;;;;;;;21.84;72.01;100128.81;5100932;28;20093;-68
2023/08/25 03:30:04;;;;;;;9.82;4.32;;;;;;;21.83;72.30;100132.53;5080619;28;20089;-67
2023/08/25 03:32:31;;;;;;;5.70;3.83;;;;;;;21.82;72.37;100134.38;5104833;28;20614;-67
2023/08/25 03:34:59;;;;;;;9.63;5.30;;;;;;;21.79;72.86;100125.84;5104168;28;20151;-68
2023/08/25 03:37:26;;;;;;;6.63;4.40;;;;;;;21.79;72.71;100128.50;5102968;28;20138;-67
2023/08/25 03:39:53;;;;;;;8.68;4.93;;;;;;;21.78;73.14;100129.53;5084015;28;20068;-68
2023/08/25 03:42:21;;;;;;;7.93;3.97;;;;;;;21.78;73.39;100129.53;5103977;28;20867;-67
2023/08/25 03:44:48;;;;;;;8.00;4.72;;;;;;;21.78;73.47;100126.84;5099953;28;20044;-68
2023/08/25 03:47:15;;;;;;;7.05;4.50;;;;;;;21.77;73.63;100133.22;5101740;28;20112;-70
2023/08/25 03:49:43;;;;;;;7.00;4.75;;;;;;;21.77;73.95;100119.84;5111376;27;20051;-66
2023/08/25 03:52:10;;;;;;;7.72;4.90;;;;;;;21.78;73.62;100126.84;5118120;27;20046;-66
2023/08/25 03:54:37;;;;;;;7.07;4.05;;;;;;;21.80;74.00;100127.53;5123363;27;20074;-65
2023/08/25 03:57:07;;;;;;;8.20;5.03;;;;;;;21.74;74.05;100115.66;5119163;27;20059;-65
2023/08/25 03:59:35;;;;;;;5.13;4.45;;;;;;;21.72;74.01;100129.22;5118105;27;20067;-67
2023/08/25 04:02:03;;;;;;;7.10;4.45;;;;;;;21.70;74.50;100120.53;5110164;27;20078;-67
2023/08/25 04:04:34;;;;;;;5.18;4.22;;;;;;;21.68;74.62;100122.53;5084811;28;20143;-66
2023/08/25 04:07:01;;;;;;;7.72;4.65;;;;;;;21.66;74.89;100121.91;5094695;28;20577;-66
2023/08/25 04:09:28;;;;;;;7.03;5.25;;;;;;;21.65;75.04;100125.56;5110730;27;20144;-67
2023/08/25 04:11:56;;;;;;;8.85;5.10;;;;;;;21.66;75.04;100118.34;5107502;27;20465;-65
2023/08/25 04:14:23;;;;;;;7.32;4.63;;;;;;;21.67;75.38;100123.56;5108100;27;20130;-67
2023/08/25 04:16:50;;;;;;;6.88;4.97;;;;;;;21.68;75.51;100133.25;5105889;27;20044;-67
2023/08/25 04:19:21;;;;;;;5.93;4.95;;;;;;;21.68;75.02;100129.75;5102281;28;20124;-68
2023/08/25 04:21:49;;;;;;;10.93;5.05;;;;;;;21.68;75.53;100133.25;5067141;28;20480;-68
2023/08/25 04:24:17;;;;;;;8.27;5.00;;;;;;;21.68;75.39;100132.44;5105741;27;20056;-68
2023/08/25 04:26:44;;;;;;;11.13;4.72;;;;;;;21.67;75.33;100128.91;5103979;27;20040;-68
2023/08/25 04:29:12;;;;;;;8.77;4.63;;;;;;;21.69;75.09;100131.41;5083221;28;20056;-67
2023/08/25 04:31:39;;;;;;;8.20;4.95;;;;;;;21.69;75.36;100140.28;5107324;27;20123;-67
2023/08/25 04:34:06;;;;;;;12.23;5.85;;;;;;;21.67;75.18;100128.91;5112762;27;20055;-68
2023/08/25 04:36:34;;;;;;;10.13;5.10;;;;;;;21.71;75.13;100132.91;5101935;27;20055;-67
2023/08/25 04:39:02;;;;;;;8.20;5.53;;;;;;;21.78;75.05;100129.53;5111140;27;20410;-64
2023/08/25 04:41:29;;;;;;;10.80;5.68;;;;;;;21.83;74.56;100128.00;5106797;27;20111;-68
2023/08/25 04:43:56;;;;;;;8.82;5.32;;;;;;;21.88;74.29;100130.16;5107496;27;20578;-68
2023/08/25 04:46:23;;;;;;;8.18;5.28;;;;;;;21.91;74.09;100127.94;5106640;27;20668;-67
2023/08/25 04:48:51;;;;;;;11.45;5.47;;;;;;;21.97;74.27;100126.41;5103001;27;20823;-67
2023/08/25 04:51:18;;;;;;;11.20;5.50;;;;;;;22.01;74.11;100117.00;5107914;28;20047;-67
2023/08/25 04:53:46;;;;;;;11.52;5.35;;;;;;;22.05;73.53;100118.31;5111132;27;20458;-68
2023/08/25 04:56:14;;;;;;;6.70;4.95;;;;;;;22.11;73.54;100114.97;5112439;27;20104;-67
2023/08/25 04:58:42;;;;;;;7.95;5.43;;;;;;;22.15;73.40;100112.75;5110498;27;20052;-67
2023/08/25 05:01:09;;;;;;;10.68;4.82;;;;;;;22.15;73.49;100113.59;5111573;27;20075;-69
2023/08/25 05:03:38;;;;;;;16.77;6.85;;;;;;;22.17;73.19;100114.25;5104997;27;20075;-68
2023/08/25 05:06:05;;;;;;;10.88;4.95;;;;;;;22.20;73.60;100118.44;5104857;27;20095;-68
2023/08/25 05:08:32;;;;;;;9.13;4.40;;;;;;;22.22;73.17;100109.19;5106642;27;20055;-68
2023/08/25 05:11:00;;;;;;;9.23;5.10;;;;;;;22.20;72.57;100107.72;5112339;27;20388;-67
2023/08/25 05:13:28;;;;;;;9.85;5.32;;;;;;;22.15;73.16;100105.56;5115898;27;20051;-68
2023/08/25 05:15:55;;;;;;;16.30;5.15;;;;;;;22.16;72.81;100101.88;5109466;28;20074;-67
2023/08/25 05:18:24;;;;;;;11.68;5.90;;;;;;;22.17;72.89;100092.00;5089170;27;20104;-67
2023/08/25 05:20:58;;;;;;;7.78;5.55;;;;;;;22.13;73.22;100091.50;5105540;27;20165;-67
2023/08/25 05:23:25;;;;;;;12.30;5.20;;;;;;;22.17;72.82;100097.34;5105394;27;20484;-68
2023/08/25 05:25:53;;;;;;;7.68;4.32;;;;;;;22.24;72.78;100090.25;5108020;27;20051;-68
2023/08/25 05:28:20;;;;;;;9.65;5.55;;;;;;;22.32;72.59;100094.72;5104185;27;20680;-70
2023/08/25 05:30:50;;;;;;;18.63;5.60;;;;;;;22.46;72.01;100093.94;5107531;27;20136;-67
2023/08/25 05:33:17;;;;;;;7.28;5.18;;;;;;;22.61;71.34;100094.81;5085419;28;20099;-67
2023/08/25 05:35:45;;;;;;;10.60;6.03;;;;;;;22.70;71.16;100096.41;5085239;28;20482;-67
2023/08/25 05:38:12;;;;;;;9.45;5.43;;;;;;;22.78;70.57;100094.66;5105923;27;20096;-69
2023/08/25 05:40:40;;;;;;;10.63;5.25;;;;;;;22.84;70.46;100086.72;5105273;27;20090;-67
2023/08/25 05:43:07;;;;;;;12.48;5.88;;;;;;;22.88;69.99;100087.19;5073379;28;20577;-68
2023/08/25 05:45:34;;;;;;;9.55;5.57;;;;;;;22.85;69.93;100099.13;5091910;27;20098;-68
2023/08/25 05:48:01;;;;;;;8.48;5.60;;;;;;;22.83;70.13;100103.84;5106586;27;20040;-67
2023/08/25 05:50:29;;;;;;;11.93;5.20;;;;;;;22.74;70.25;100100.41;5105617;27;20439;-69
2023/08/25 05:52:56;;;;;;;11.40;5.57;;;;;;;22.67;70.46;100098.63;5095443;27;20074;-66
2023/08/25 05:55:23;;;;;;;14.05;5.90;;;;;;;22.63;70.43;100098.16;5114039;27;20561;-68
2023/08/25 05:57:51;;;;;;;7.45;5.53;;;;;;;22.59;70.85;100091.47;5116547;27;20096;-67
2023/08/25 06:00:19;;;;;;;17.88;5.30;;;;;;;22.59;70.91;100091.47;5091546;27;20105;-67
2023/08/25 06:02:47;;;;;;;9.00;4.93;;;;;;;22.72;70.49;100089.00;5108855;27;20142;-68
2023/08/25 06:05:14;;;;;;;10.35;4.50;;;;;;;22.88;69.92;100089.88;5111953;27;20110;-67
2023/08/25 06:07:41;;;;;;;14.25;5.75;;;;;;;22.97;69.75;100089.63;5112730;27;20119;-66
2023/08/25 06:10:09;;;;;;;9.85;4.88;;;;;;;23.05;69.25;100087.88;5109552;27;20056;-66
2023/08/25 06:12:36;;;;;;;10.25;5.45;;;;;;;23.18;68.85;100091.56;5106315;28;20090;-67
2023/08/25 06:15:04;;;;;;;14.00;5.95;;;;;;;23.22;68.16;100089.34;5109198;27;20101;-66
2023/08/25 06:17:31;;;;;;;7.53;5.63;;;;;;;23.30;67.50;100091.94;5108453;27;20572;-66
2023/08/25 06:19:58;;;;;;;6.30;4.43;;;;;;;23.35;66.75;100089.53;5087195;27;20730;-68
2023/08/25 06:22:25;;;;;;;11.82;5.32;;;;;;;23.34;65.91;100092.41;5110578;27;20044;-67
2023/08/25 06:24:53;;;;;;;5.85;5.00;;;;;;;23.42;66.01;100090.47;5111388;27;20074;-66
2023/08/25 06:27:20;;;;;;;15.13;6.07;;;;;;;23.51;65.86;100096.56;5094200;28;20064;-67
2023/08/25 06:29:47;;;;;;;30.00;8.63;;;;;;;23.57;65.73;100101.19;5107773;27;20561;-68
2023/08/25 06:32:15;;;;;;;15.35;5.72;;;;;;;23.56;65.55;100093.31;5106933;27;20091;-68
2023/08/25 06:34:42;;;;;;;16.27;7.25;;;;;;;23.47;66.38;100093.44;5105556;28;20051;-68
2023/08/25 06:37:10;;;;;;;23.13;7.70;;;;;;;23.59;67.12;100093.75;5102874;27;20371;-67
2023/08/25 06:39:37;;;;;;;12.05;5.97;;;;;;;23.71;66.71;100094.97;5081872;27;20350;-67
2023/08/25 06:42:05;;;;;;;16.25;5.97;;;;;;;23.59;65.08;100096.44;5091495;28;20154;-68
2023/08/25 06:44:32;;;;;;;12.40;5.95;;;;;;;23.64;65.21;100099.47;5101957;28;20064;-66
2023/08/25 06:46:59;;;;;;;10.77;5.40;;;;;;;23.75;65.38;100106.19;5098774;28;20048;-68
2023/08/25 06:49:27;;;;;;;15.77;5.63;;;;;;;23.90;64.67;100100.78;5106884;28;20092;-68
2023/08/25 06:51:55;;;;;;;15.48;6.18;;;;;;;24.03;64.36;100098.22;5099912;28;20126;-66
2023/08/25 06:54:24;;;;;;;10.93;6.05;;;;;;;24.14;64.11;100099.59;5101117;28;20090;-67
2023/08/25 06:56:51;;;;;;;12.27;5.20;;;;;;;24.29;64.09;100099.53;5106826;28;20085;-67
2023/08/25 06:59:18;;;;;;;10.55;5.38;;;;;;;24.45;63.38;100092.06;5095060;28;20072;-68
2023/08/25 07:01:46;;;;;;;8.15;5.45;;;;;;;24.48;62.74;100088.97;5101795;28;20047;-66
2023/08/25 07:04:13;;;;;;;12.50;5.28;;;;;;;24.51;61.88;100087.78;5098932;28;20487;-67
2023/08/25 07:06:40;;;;;;;12.93;5.43;;;;;;;24.59;60.73;100090.34;5094502;28;20052;-67
2023/08/25 07:09:08;;;;;;;13.30;5.88;;;;;;;24.48;60.68;100099.75;5094689;28;20381;-66
2023/08/25 07:11:35;;;;;;;10.63;5.72;;;;;;;24.40;61.08;100086.41;5100716;28;20052;-66
2023/08/25 07:14:02;;;;;;;18.27;5.55;;;;;;;24.55;60.84;100089.06;5109123;28;20055;-65
2023/08/25 07:16:29;;;;;;;14.18;5.60;;;;;;;24.64;60.03;100087.88;5103668;28;20102;-66
2023/08/25 07:18:57;;;;;;;9.40;5.45;;;;;;;24.70;60.15;100092.47;5098893;28;20075;-67
2023/08/25 07:21:24;;;;;;;14.10;5.15;;;;;;;24.82;59.16;100094.66;5105144;28;20044;-66
2023/08/25 07:23:51;;;;;;;7.50;5.28;;;;;;;24.92;59.03;100095.94;5113399;27;20073;-67
2023/08/25 07:26:19;;;;;;;10.07;4.93;;;;;;;25.09;58.76;100085.75;5120368;27;20647;-66
2023/08/25 07:28:46;;;;;;;8.18;5.53;;;;;;;25.18;58.13;100100.72;5117124;27;20064;-67
2023/08/25 07:31:14;;;;;;;14.90;4.80;;;;;;;25.28;57.70;100099.53;5112710;27;20474;-67
2023/08/25 07:33:41;;;;;;;13.25;4.80;;;;;;;25.47;57.60;100098.78;5113710;27;20487;-67
2023/08/25 07:36:09;;;;;;;11.70;4.85;;;;;;;25.61;56.77;100102.38;5096100;28;20082;-67
2023/08/25 07:38:36;;;;;;;14.10;5.43;;;;;;;25.64;56.51;100102.81;5117356;27;20079;-67
2023/08/25 07:41:04;;;;;;;11.52;5.10;;;;;;;25.74;56.12;100111.34;5105969;27;20056;-67
2023/08/25 07:43:31;;;;;;;7.47;5.30;;;;;;;25.80;55.88;100107.03;5109264;27;20150;-66
2023/08/25 07:45:58;;;;;;;6.63;4.35;;;;;;;25.68;55.34;100109.47;5107697;27;20082;-67
2023/08/25 07:48:25;;;;;;;10.77;5.43;;;;;;;25.68;55.75;100116.72;5115105;27;20051;-68
2023/08/25 07:50:53;;;;;;;7.93;4.97;;;;;;;25.66;55.13;100119.59;5105162;27;20051;-65
2023/08/25 07:53:20;;;;;;;13.18;4.68;;;;;;;25.87;55.33;100120.53;5111139;27;20079;-66
2023/08/25 07:55:48;;;;;;;9.25;4.80;;;;;;;25.98;54.07;100125.34;5106222;27;20086;-66
2023/08/25 07:58:15;;;;;;;5.57;4.35;;;;;;;26.05;54.64;100125.38;5093075;28;20084;-67
2023/08/25 08:00:43;;;;;;;19.98;5.93;;;;;;;26.15;54.64;100126.63;5110577;27;20135;-65
2023/08/25 08:03:10;;;;;;;14.95;5.00;;;;;;;26.39;54.32;100119.84;5116055;27;20126;-67
2023/08/25 08:05:38;;;;;;;15.20;4.97;;;;;;;26.52;53.93;100113.63;5089617;28;20083;-66
2023/08/25 08:08:06;;;;;;;9.27;5.10;;;;;;;26.51;52.65;100125.47;5107110;27;20075;-67
2023/08/25 08:10:33;;;;;;;12.98;5.05;;;;;;;26.44;52.82;100120.09;5108941;27;20079;-66
2023/08/25 08:13:00;;;;;;;7.25;4.35;;;;;;;26.42;52.99;100124.00;5112795;27;20088;-67
2023/08/25 08:15:28;;;;;;;11.18;4.78;;;;;;;26.61;52.40;100123.19;5104820;28;20128;-66
2023/08/25 08:17:55;;;;;;;9.98;4.85;;;;;;;26.74;52.19;100128.59;5110253;27;20412;-68
2023/08/25 08:20:24;;;;;;;8.80;4.35;;;;;;;26.66;51.56;100136.94;5107159;28;20055;-66
2023/08/25 08:22:52;;;;;;;9.25;4.57;;;;;;;26.69;51.75;100125.69;5107510;28;20488;-67
2023/08/25 08:25:19;;;;;;;10.90;4.60;;;;;;;26.91;51.34;100125.47;5115188;27;20635;-66
2023/08/25 08:27:47;;;;;;;9.98;4.40;;;;;;;27.09;51.35;100120.28;5085984;27;20075;-66
2023/08/25 08:30:16;;;;;;;8.77;4.10;;;;;;;27.36;50.49;100131.06;5109777;27;20139;-64
2023/08/25 08:32:44;;;;;;;9.00;4.50;;;;;;;27.51;50.30;100120.81;5109273;27;20051;-66
2023/08/25 08:35:12;;;;;;;7.55;3.90;;;;;;;27.73;50.54;100132.19;5110815;27;20039;-67
2023/08/25 08:37:40;;;;;;;11.77;4.10;;;;;;;27.94;49.68;100136.47;5104975;28;20048;-67
2023/08/25 08:40:09;;;;;;;7.55;4.20;;;;;;;28.03;49.73;100137.88;5107506;27;20071;-65
2023/08/25 08:42:37;;;;;;;10.20;4.32;;;;;;;28.11;49.05;100131.41;5118328;27;20051;-66
2023/08/25 08:45:07;;;;;;;7.05;4.43;;;;;;;28.26;48.60;100134.63;5090070;28;20534;-67
2023/08/25 08:47:35;;;;;;;6.28;3.75;;;;;;;28.37;48.50;100139.41;5115604;27;20580;-67
2023/08/25 08:50:06;;;;;;;7.70;4.03;;;;;;;28.45;48.11;100143.69;5104979;28;20060;-66
2023/08/25 08:52:35;;;;;;;9.52;3.58;;;;;;;28.51;46.83;100150.97;5076760;28;20083;-66
2023/08/25 08:55:05;;;;;;;9.38;4.30;;;;;;;28.51;47.22;100146.38;5101521;27;20832;-67
2023/08/25 08:57:33;;;;;;;9.32;3.95;;;;;;;28.51;47.20;100140.13;5105634;27;20126;-67
2023/08/25 09:00:03;;;;;;;7.03;4.22;;;;;;;28.61;47.18;100145.88;5101994;28;20662;-65
2023/08/25 09:02:32;;;;;;;7.03;4.55;;;;;;;28.75;46.63;100150.13;5088519;28;20086;-65
2023/08/25 09:05:02;;;;;;;7.20;3.65;;;;;;;28.67;46.18;100142.28;5090776;28;20116;-66
2023/08/25 09:07:33;;;;;;;9.10;3.95;;;;;;;28.72;45.77;100150.56;5108477;27;20560;-67
2023/08/25 09:10:00;;;;;;;11.75;4.47;;;;;;;28.89;45.71;100152.72;5088609;27;20615;-68
2023/08/25 09:12:29;;;;;;;4.57;3.58;;;;;;;29.04;45.67;100150.53;5110857;27;20090;-68
2023/08/25 09:14:56;;;;;;;5.60;4.00;;;;;;;29.15;45.47;100152.53;5107911;27;20071;-67
2023/08/25 09:17:23;;;;;;;12.60;4.47;;;;;;;29.29;44.67;100152.38;5109573;27;20067;-68
2023/08/25 09:19:51;;;;;;;6.88;4.32;;;;;;;29.34;43.80;100147.94;5085608;28;20067;-65
2023/08/25 09:22:19;;;;;;;10.38;3.70;;;;;;;29.19;44.49;100156.44;5091907;28;20051;-68
2023/08/25 09:24:46;;;;;;;8.02;3.65;;;;;;;29.26;44.64;100167.22;5105930;27;20075;-68
2023/08/25 09:27:26;;;;;;;8.32;4.18;;;;;;;29.47;44.11;100171.38;5103080;27;20047;-67
2023/08/25 09:30:04;;;;;;;9.15;3.60;;;;;;;29.09;44.23;100166.97;5109160;27;20131;-67
2023/08/25 09:32:32;;;;;;;9.02;3.50;;;;;;;29.23;43.86;100157.66;5108822;27;20104;-66
2023/08/25 09:35:14;;;;;;;8.40;4.22;;;;;;;29.64;43.60;100153.50;5108961;28;20075;-67
2023/08/25 09:37:43;;;;;;;7.28;3.92;;;;;;;29.94;42.95;100158.13;5107110;27;20567;-67
2023/08/25 09:40:11;;;;;;;15.02;4.15;;;;;;;30.06;43.06;100161.72;5109848;27;20055;-67
2023/08/25 09:42:38;;;;;;;6.55;4.10;;;;;;;30.09;42.38;100163.16;5106789;27;20082;-67
2023/08/25 09:45:07;;;;;;;6.28;4.22;;;;;;;30.22;42.53;100168.44;5089467;28;20087;-67
2023/08/25 09:47:35;;;;;;;11.50;4.07;;;;;;;30.35;42.43;100167.41;5108650;27;20464;-65
2023/08/25 09:50:03;;;;;;;6.90;4.25;;;;;;;30.35;42.18;100167.41;5114653;27;20047;-67
2023/08/25 09:52:34;;;;;;;8.00;3.70;;;;;;;30.68;41.56;100162.31;5104974;27;20056;-67
2023/08/25 09:55:01;;;;;;;6.95;3.88;;;;;;;30.89;41.56;100162.81;5092204;27;20043;-66
2023/08/25 09:57:29;;;;;;;18.42;5.15;;;;;;;30.81;41.87;100165.91;5081804;28;20149;-65
2023/08/25 09:59:57;;;;;;;9.05;4.22;;;;;;;30.82;41.68;100178.41;5089836;28;20131;-67
2023/08/25 10:02:25;;;;;;;10.95;4.05;;;;;;;30.77;40.99;100177.22;5087294;28;20052;-67
2023/08/25 10:04:54;;;;;;;8.48;4.25;;;;;;;30.77;41.66;100173.69;5106910;27;20491;-66
2023/08/25 10:07:22;;;;;;;8.43;4.50;;;;;;;30.58;41.51;100183.78;5104698;27;20079;-67
2023/08/25 10:09:49;;;;;;;6.82;4.13;;;;;;;30.85;41.57;100184.22;5085519;27;20067;-66
2023/08/25 10:12:17;;;;;;;17.67;4.57;;;;;;;31.02;41.93;100185.16;5105112;27;20079;-65
2023/08/25 10:14:45;;;;;;;8.75;3.80;;;;;;;30.87;41.60;100183.97;5090261;28;20047;-65
2023/08/25 10:17:14;;;;;;;8.93;4.32;;;;;;;30.87;41.79;100186.69;5087979;28;20503;-68
2023/08/25 10:19:42;;;;;;;7.85;3.42;;;;;;;30.40;42.88;100181.97;5084723;28;20059;-65
2023/08/25 10:22:11;;;;;;;11.63;4.90;;;;;;;30.47;42.27;100179.97;5090356;28;20712;-66
2023/08/25 10:24:40;;;;;;;7.95;3.63;;;;;;;30.30;42.93;100184.38;5107852;27;20055;-64
2023/08/25 10:27:07;;;;;;;4.03;3.63;;;;;;;30.20;42.50;100174.09;5082722;28;20043;-65
2023/08/25 10:29:35;;;;;;;10.18;4.13;;;;;;;30.07;42.86;100179.66;5106685;28;20060;-66
2023/08/25 10:32:03;;;;;;;7.93;3.78;;;;;;;30.20;43.51;100175.97;5087197;28;20079;-67
2023/08/25 10:34:35;;;;;;;8.27;3.97;;;;;;;30.13;43.16;100181.47;5106988;28;20090;-65
2023/08/25 10:37:07;;;;;;;7.60;3.88;;;;;;;29.94;43.94;100190.69;5103563;27;20612;-66
2023/08/25 10:39:56;;;;;;;11.85;4.28;;;;;;;29.66;44.69;100191.22;5100697;28;20079;-66
2023/08/25 10:42:27;;;;;;;7.68;3.95;;;;;;;29.58;45.49;100188.81;5100112;28;20070;-63
2023/08/25 10:44:56;;;;;;;8.32;3.60;;;;;;;29.61;44.91;100191.91;5094725;28;20131;-66
2023/08/25 10:47:23;;;;;;;11.20;3.90;;;;;;;29.55;45.03;100194.69;5104605;28;20075;-67
2023/08/25 10:49:54;;;;;;;7.38;3.95;;;;;;;29.45;45.45;100201.44;5095155;28;20052;-66
2023/08/25 10:52:22;;;;;;;5.53;4.32;;;;;;;29.27;45.28;100198.72;5104612;28;20043;-66
2023/08/25 10:54:52;;;;;;;8.98;3.67;;;;;;;29.24;45.82;100189.13;5103766;28;20127;-65
2023/08/25 10:57:28;;;;;;;10.55;4.07;;;;;;;29.14;46.09;100188.00;5101816;28;20071;-66
2023/08/25 10:59:56;;;;;;;11.00;4.18;;;;;;;29.06;46.30;100191.81;5105680;27;20132;-65
2023/08/25 11:02:35;;;;;;;10.82;4.10;;;;;;;28.97;46.53;100193.13;5106667;27;20113;-64
2023/08/25 11:05:31;;;;;;;8.70;3.90;;;;;;;29.00;47.22;100193.53;5109365;27;20044;-66
2023/08/25 11:08:23;;;;;;;5.43;4.10;;;;;;;29.20;46.39;100185.22;5104195;28;20074;-67
2023/08/25 11:11:29;;;;;;;9.63;4.15;;;;;;;29.25;46.66;100185.38;5108934;27;20504;-67
2023/08/25 11:13:57;;;;;;;6.80;4.13;;;;;;;29.16;46.54;100191.31;5054900;28;20146;-67
2023/08/25 11:16:25;;;;;;;7.60;4.00;;;;;;;29.05;46.81;100192.88;5071176;28;20076;-66
2023/08/25 11:18:52;;;;;;;7.22;3.80;;;;;;;29.04;46.71;100195.78;5080020;27;20043;-67
2023/08/25 11:21:26;;;;;;;12.60;3.92;;;;;;;28.86;46.89;100180.25;5110064;28;20086;-66
2023/08/25 11:23:54;;;;;;;8.80;4.00;;;;;;;29.15;46.88;100192.34;5109899;27;20073;-66
2023/08/25 11:26:21;;;;;;;8.63;3.65;;;;;;;29.50;46.04;100203.50;5114135;27;20081;-66
2023/08/25 11:28:50;;;;;;;7.85;4.03;;;;;;;29.92;45.49;100195.53;5105312;28;20089;-66
2023/08/25 11:31:21;;;;;;;9.65;4.25;;;;;;;30.24;44.78;100199.72;5111027;27;20143;-66